createdAt,value
2023-02-11T00:01:23.605Z,6.40
2023-02-11T00:03:52.483Z,6.40
2023-02-11T00:06:20.818Z,6.40
2023-02-11T00:08:49.410Z,6.40
2023-02-11T00:11:19.636Z,6.40
2023-02-11T00:13:48.307Z,6.40
2023-02-11T00:16:18.845Z,6.40
2023-02-11T00:18:50.312Z,6.40
2023-02-11T00:21:20.699Z,6.40
2023-02-11T00:23:49.996Z,6.40
2023-02-11T00:26:20.517Z,6.30
2023-02-11T00:28:50.414Z,6.30
2023-02-11T00:31:20.354Z,6.40
2023-02-11T00:33:51.364Z,6.40
2023-02-11T00:36:22.131Z,6.40
2023-02-11T00:38:51.259Z,6.40
2023-02-11T00:41:20.451Z,6.30
2023-02-11T00:43:49.373Z,6.20
2023-02-11T00:46:20.591Z,6.20
2023-02-11T00:48:51.800Z,6.00
2023-02-11T00:51:23.062Z,6.00
2023-02-11T00:53:52.334Z,6.00
2023-02-11T00:56:20.738Z,5.90
2023-02-11T00:58:49.795Z,5.80
2023-02-11T01:01:18.850Z,5.80
2023-02-11T01:03:48.357Z,5.70
2023-02-11T01:06:18.543Z,5.80
2023-02-11T01:08:46.928Z,5.80
2023-02-11T01:11:17.717Z,5.70
2023-02-11T01:13:48.659Z,5.80
2023-02-11T01:16:18.827Z,5.70
2023-02-11T01:18:47.658Z,5.80
2023-02-11T01:21:20.436Z,5.80
2023-02-11T01:23:48.773Z,5.80
2023-02-11T01:26:17.319Z,5.80
2023-02-11T01:28:45.868Z,5.70
2023-02-11T01:31:14.225Z,5.70
2023-02-11T01:33:42.657Z,5.70
2023-02-11T01:36:12.969Z,5.70
2023-02-11T01:38:44.479Z,5.70
2023-02-11T01:41:15.742Z,5.60
2023-02-11T01:43:45.705Z,5.60
2023-02-11T01:46:35.089Z,5.50
2023-02-11T01:49:07.945Z,5.40
2023-02-11T01:51:41.098Z,5.40
2023-02-11T01:54:33.476Z,5.50
2023-02-11T01:57:21.043Z,5.60
2023-02-11T01:59:56.697Z,5.60
2023-02-11T02:02:30.592Z,5.70
2023-02-11T02:05:05.851Z,5.80
2023-02-11T02:07:40.454Z,5.80
2023-02-11T02:10:15.140Z,5.90
2023-02-11T02:12:43.681Z,5.90
2023-02-11T02:15:27.480Z,6.00
2023-02-11T02:18:00.672Z,6.10
2023-02-11T02:21:04.413Z,6.00
2023-02-11T02:23:44.021Z,6.10
2023-02-11T02:26:33.652Z,6.20
2023-02-11T02:29:35.442Z,6.30
2023-02-11T02:32:40.501Z,6.40
2023-02-11T02:35:17.263Z,6.40
2023-02-11T02:37:52.636Z,6.40
2023-02-11T02:40:24.994Z,6.40
2023-02-11T02:42:55.083Z,6.40
2023-02-11T02:45:23.441Z,6.50
2023-02-11T02:47:53.086Z,6.50
2023-02-11T02:50:30.149Z,6.60
2023-02-11T02:53:13.295Z,6.70
2023-02-11T02:55:53.590Z,6.70
2023-02-11T02:58:54.356Z,6.70
2023-02-11T03:01:33.223Z,6.70
2023-02-11T03:04:12.805Z,6.70
2023-02-11T03:06:49.722Z,6.70
2023-02-11T03:09:25.013Z,6.80
2023-02-11T03:11:53.374Z,6.80
2023-02-11T03:14:23.186Z,6.90
2023-02-11T03:16:52.977Z,6.90
2023-02-11T03:19:26.617Z,6.90
2023-02-11T03:21:56.029Z,6.90
2023-02-11T03:24:30.617Z,6.90
2023-02-11T03:27:02.885Z,6.90
2023-02-11T03:29:36.564Z,6.90
2023-02-11T03:32:12.258Z,7.00
2023-02-11T03:34:48.331Z,7.00
2023-02-11T03:37:21.158Z,7.10
2023-02-11T03:39:54.216Z,7.00
2023-02-11T03:42:24.680Z,7.00
2023-02-11T03:44:59.605Z,6.90
2023-02-11T03:47:29.796Z,6.90
2023-02-11T03:50:03.448Z,7.00
2023-02-11T03:52:32.857Z,7.00
2023-02-11T03:55:05.374Z,7.00
2023-02-11T03:57:34.320Z,7.10
2023-02-11T04:00:02.641Z,7.10
2023-02-11T04:02:40.903Z,7.10
2023-02-11T04:05:12.408Z,7.00
2023-02-11T04:07:40.748Z,7.00
2023-02-11T04:10:09.476Z,7.00
2023-02-11T04:12:37.811Z,7.00
2023-02-11T04:15:06.924Z,7.00
2023-02-11T04:17:35.562Z,7.00
2023-02-11T04:20:03.990Z,7.10
2023-02-11T04:22:33.717Z,7.10
2023-02-11T04:25:01.987Z,7.20
2023-02-11T04:27:30.492Z,7.20
2023-02-11T04:29:58.791Z,7.20
2023-02-11T04:32:27.178Z,7.20
2023-02-11T04:34:55.482Z,7.20
2023-02-11T04:37:23.810Z,7.20
2023-02-11T04:39:53.460Z,7.20
2023-02-11T04:42:21.770Z,7.10
2023-02-11T04:44:50.051Z,7.10
2023-02-11T04:47:18.393Z,7.10
2023-02-11T04:49:46.705Z,7.20
2023-02-11T04:52:15.091Z,7.20
2023-02-11T04:54:43.388Z,7.30
2023-02-11T04:57:13.079Z,7.20
2023-02-11T04:59:41.772Z,7.20
2023-02-11T05:02:10.045Z,7.20
2023-02-11T05:04:38.374Z,7.20
2023-02-11T05:07:06.672Z,7.30
2023-02-11T05:09:34.997Z,7.20
2023-02-11T05:12:03.312Z,7.20
2023-02-11T05:14:33.381Z,7.20
2023-02-11T05:17:01.850Z,7.20
2023-02-11T05:19:31.270Z,7.20
2023-02-11T05:22:03.033Z,7.20
2023-02-11T05:24:32.471Z,7.20
2023-02-11T05:27:01.452Z,7.10
2023-02-11T05:29:30.165Z,7.10
2023-02-11T05:32:00.415Z,7.10
2023-02-11T05:34:28.814Z,7.00
2023-02-11T05:36:57.218Z,6.90
2023-02-11T05:39:25.537Z,6.90
2023-02-11T05:41:53.859Z,6.90
2023-02-11T05:44:22.223Z,6.80
2023-02-11T05:46:50.516Z,6.90
2023-02-11T05:49:20.561Z,7.00
2023-02-11T05:51:49.069Z,7.00
2023-02-11T05:54:17.879Z,6.90
2023-02-11T05:56:46.218Z,6.90
2023-02-11T05:59:15.485Z,6.90
2023-02-11T06:01:43.832Z,6.90
2023-02-11T06:04:12.135Z,6.80
2023-02-11T06:06:41.825Z,6.80
2023-02-11T06:09:11.114Z,6.80
2023-02-11T06:11:39.501Z,6.80
2023-02-11T06:14:07.809Z,6.80
2023-02-11T06:16:36.136Z,6.90
2023-02-11T06:19:04.601Z,7.00
2023-02-11T06:21:43.205Z,7.00
2023-02-11T06:24:13.841Z,6.90
2023-02-11T06:26:42.164Z,6.90
2023-02-11T06:29:10.657Z,7.00
2023-02-11T06:31:39.779Z,7.00
2023-02-11T06:34:09.398Z,7.10
2023-02-11T06:36:39.534Z,7.10
2023-02-11T06:39:08.308Z,7.10
2023-02-11T06:41:37.956Z,7.10
2023-02-11T06:44:06.400Z,7.10
2023-02-11T06:46:34.933Z,7.10
2023-02-11T06:49:03.309Z,7.20
2023-02-11T06:51:31.615Z,7.10
2023-02-11T06:53:59.982Z,7.10
2023-02-11T06:56:28.406Z,7.10
2023-02-11T06:58:58.670Z,7.10
2023-02-11T07:01:29.097Z,7.10
2023-02-11T07:03:57.651Z,7.10
2023-02-11T07:06:28.322Z,7.00
2023-02-11T07:08:57.104Z,7.10
2023-02-11T07:11:27.849Z,7.10
2023-02-11T07:14:02.092Z,7.10
2023-02-11T07:16:30.740Z,7.10
2023-02-11T07:18:59.059Z,7.20
2023-02-11T07:21:27.618Z,7.10
2023-02-11T07:23:55.954Z,7.20
2023-02-11T07:26:25.807Z,7.20
2023-02-11T07:28:54.421Z,7.20
2023-02-11T07:31:26.631Z,7.20
2023-02-11T07:33:56.941Z,7.20
2023-02-11T07:36:25.367Z,7.20
2023-02-11T07:38:53.767Z,7.20
2023-02-11T07:41:23.795Z,7.20
2023-02-11T07:43:52.791Z,7.40
2023-02-11T07:46:24.441Z,7.40
2023-02-11T07:48:53.070Z,7.40
2023-02-11T07:51:23.357Z,7.40
2023-02-11T07:53:52.374Z,7.40
2023-02-11T07:56:22.181Z,7.30
2023-02-11T07:58:51.038Z,7.40
2023-02-11T08:01:22.451Z,7.50
2023-02-11T08:03:52.744Z,7.50
2023-02-11T08:06:22.430Z,7.60
2023-02-11T08:08:51.384Z,7.60
2023-02-11T08:11:21.806Z,7.60
2023-02-11T08:13:50.750Z,7.60
2023-02-11T08:16:20.713Z,7.70
2023-02-11T08:18:49.901Z,7.70
2023-02-11T08:21:20.069Z,7.80
2023-02-11T08:23:49.724Z,7.80
2023-02-11T08:26:19.855Z,7.90
2023-02-11T08:28:49.342Z,7.90
2023-02-11T08:31:19.745Z,7.90
2023-02-11T08:33:48.174Z,8.00
2023-02-11T08:36:20.001Z,8.00
2023-02-11T08:38:48.965Z,8.00
2023-02-11T08:41:18.109Z,8.00
2023-02-11T08:43:47.036Z,8.10
2023-02-11T08:46:16.829Z,8.20
2023-02-11T08:48:45.527Z,8.20
2023-02-11T08:51:20.503Z,8.10
2023-02-11T08:53:49.401Z,8.10
2023-02-11T08:56:19.013Z,8.20
2023-02-11T08:58:47.989Z,8.10
2023-02-11T09:01:18.194Z,8.20
2023-02-11T09:03:47.285Z,8.20
2023-02-11T09:06:17.643Z,8.10
2023-02-11T09:08:50.017Z,8.10
2023-02-11T09:11:20.284Z,8.20
2023-02-11T09:13:48.910Z,8.10
2023-02-11T09:16:19.908Z,8.10
2023-02-11T09:18:48.976Z,8.10
2023-02-11T09:21:19.138Z,8.10
2023-02-11T09:23:49.064Z,8.10
2023-02-11T09:26:20.212Z,8.00
2023-02-11T09:28:48.893Z,8.10
2023-02-11T09:31:18.906Z,8.10
2023-02-11T09:33:50.024Z,8.10
2023-02-11T09:36:20.496Z,8.20
2023-02-11T09:38:50.460Z,8.20
2023-02-11T09:41:40.857Z,8.20
2023-02-11T09:44:17.708Z,8.20
2023-02-11T09:46:54.025Z,8.30
2023-02-11T09:49:28.308Z,8.30
2023-02-11T09:52:02.799Z,8.40
2023-02-11T09:54:37.567Z,8.50
2023-02-11T09:57:12.269Z,8.40
2023-02-11T09:59:49.312Z,8.50
2023-02-11T10:02:26.035Z,8.50
2023-02-11T10:05:19.666Z,8.60
2023-02-11T10:07:58.144Z,8.60
2023-02-11T10:10:45.554Z,8.60
2023-02-11T10:13:42.344Z,8.70
2023-02-11T10:16:21.687Z,8.80
2023-02-11T10:19:11.323Z,8.80
2023-02-11T10:21:47.876Z,8.80
2023-02-11T10:24:17.781Z,8.90
2023-02-11T10:26:47.824Z,8.90
2023-02-11T10:29:32.018Z,8.90
2023-02-11T10:32:02.416Z,8.70
2023-02-11T10:34:30.776Z,8.80
2023-02-11T10:37:00.347Z,8.90
2023-02-11T10:39:29.310Z,8.90
2023-02-11T10:42:03.687Z,8.90
2023-02-11T10:44:34.613Z,8.90
2023-02-11T10:47:10.124Z,8.90
2023-02-11T10:49:41.175Z,9.10
2023-02-11T10:52:15.535Z,9.10
2023-02-11T10:54:56.319Z,9.10
2023-02-11T10:57:29.824Z,9.20
2023-02-11T11:00:08.082Z,9.20
2023-02-11T11:02:44.080Z,9.20
2023-02-11T11:05:19.525Z,9.20
2023-02-11T11:07:54.771Z,9.10
2023-02-11T11:10:43.503Z,9.20
2023-02-11T11:13:30.995Z,9.30
2023-02-11T11:16:23.826Z,9.40
2023-02-11T11:18:54.062Z,9.50
2023-02-11T11:21:25.572Z,9.60
2023-02-11T11:23:59.182Z,9.60
2023-02-11T11:26:29.596Z,9.50
2023-02-11T11:29:02.617Z,9.50
2023-02-11T11:31:34.950Z,9.50
2023-02-11T11:34:15.944Z,9.60
2023-02-11T11:36:44.916Z,9.60
2023-02-11T11:39:23.903Z,9.60
2023-02-11T11:41:55.001Z,9.50
2023-02-11T11:44:32.363Z,9.50
2023-02-11T11:47:23.875Z,9.50
2023-02-11T11:50:12.101Z,9.40
2023-02-11T11:52:47.424Z,9.50
2023-02-11T11:55:20.667Z,9.60
2023-02-11T11:57:50.148Z,9.70
2023-02-11T12:00:22.965Z,9.70
2023-02-11T12:03:16.178Z,9.70
2023-02-11T12:05:51.448Z,9.70
2023-02-11T12:08:28.051Z,9.70
2023-02-11T12:11:04.488Z,9.60
2023-02-11T12:13:50.507Z,9.60
2023-02-11T12:16:34.853Z,9.60
2023-02-11T12:19:33.030Z,9.60
2023-02-11T12:22:10.618Z,9.60
2023-02-11T12:25:06.010Z,9.60
2023-02-11T12:27:47.246Z,9.60
2023-02-11T12:30:35.401Z,9.80
2023-02-11T12:33:12.891Z,9.70
2023-02-11T12:35:55.179Z,9.80
2023-02-11T12:38:39.778Z,10.00
2023-02-11T12:41:47.099Z,10.00
2023-02-11T12:44:25.188Z,10.00
2023-02-11T12:47:01.552Z,9.90
2023-02-11T12:49:57.551Z,9.90
2023-02-11T12:52:44.598Z,9.90
2023-02-11T12:55:20.377Z,10.00
2023-02-11T12:57:51.469Z,10.00
2023-02-11T13:00:24.809Z,10.00
2023-02-11T13:03:00.376Z,10.10
2023-02-11T13:05:34.687Z,10.20
2023-02-11T13:08:07.155Z,10.20
2023-02-11T13:10:37.697Z,10.20
2023-02-11T13:13:18.074Z,10.20
2023-02-11T13:15:51.091Z,10.20
2023-02-11T13:18:27.860Z,10.20
2023-02-11T13:21:08.697Z,10.20
2023-02-11T13:23:44.812Z,10.30
2023-02-11T13:26:20.841Z,10.40
2023-02-11T13:28:55.301Z,10.40
2023-02-11T13:31:27.023Z,10.40
2023-02-11T13:33:55.584Z,10.40
2023-02-11T13:36:27.031Z,10.50
2023-02-11T13:39:01.861Z,10.40
2023-02-11T13:41:36.333Z,10.50
2023-02-11T13:44:22.242Z,10.50
2023-02-11T13:46:55.648Z,10.60
2023-02-11T13:49:26.845Z,10.70
2023-02-11T13:51:57.671Z,10.50
2023-02-11T13:54:31.370Z,10.50
2023-02-11T13:57:32.356Z,10.30
2023-02-11T14:00:01.965Z,10.30
2023-02-11T14:02:51.564Z,10.30
2023-02-11T14:05:50.087Z,10.20
2023-02-11T14:08:46.362Z,10.30
2023-02-11T14:11:48.331Z,10.20
2023-02-11T14:14:19.679Z,10.20
2023-02-11T14:17:24.463Z,10.20
2023-02-11T14:19:53.379Z,10.10
2023-02-11T14:22:26.043Z,10.20
2023-02-11T14:24:58.395Z,10.20
2023-02-11T14:27:44.571Z,10.30
2023-02-11T14:30:33.195Z,10.30
2023-02-11T14:33:42.986Z,10.20
2023-02-11T14:36:24.294Z,10.30
2023-02-11T14:39:02.731Z,10.20
2023-02-11T14:41:39.832Z,10.30
2023-02-11T14:44:15.607Z,10.30
2023-02-11T14:46:47.192Z,10.20
2023-02-11T14:49:25.138Z,10.20
2023-02-11T14:51:55.407Z,10.20
2023-02-11T14:54:27.985Z,10.10
2023-02-11T14:57:14.307Z,10.10
2023-02-11T14:59:55.696Z,10.10
2023-02-11T15:02:26.477Z,10.10
2023-02-11T15:04:55.298Z,10.10
2023-02-11T15:07:23.745Z,10.10
2023-02-11T15:09:55.572Z,10.10
2023-02-11T15:12:28.635Z,10.10
2023-02-11T15:14:59.280Z,10.10
2023-02-11T15:17:30.220Z,10.00
2023-02-11T15:20:01.437Z,10.00
2023-02-11T15:22:33.775Z,10.00
2023-02-11T15:25:04.748Z,10.00
2023-02-11T15:27:41.508Z,10.10
2023-02-11T15:30:26.378Z,10.10
2023-02-11T15:32:58.839Z,10.10
2023-02-11T15:35:29.629Z,10.20
2023-02-11T15:37:59.129Z,10.20
2023-02-11T15:40:29.660Z,10.10
2023-02-11T15:43:02.746Z,10.20
2023-02-11T15:45:34.421Z,10.10
2023-02-11T15:48:10.705Z,10.10
2023-02-11T15:50:40.979Z,10.10
2023-02-11T15:53:26.127Z,10.10
2023-02-11T15:56:05.652Z,10.10
2023-02-11T15:58:39.610Z,10.10
2023-02-11T16:01:09.684Z,10.10
2023-02-11T16:03:38.097Z,10.00
2023-02-11T16:06:23.668Z,10.00
2023-02-11T16:08:59.481Z,10.00
2023-02-11T16:11:31.723Z,10.00
2023-02-11T16:14:05.826Z,10.00
2023-02-11T16:16:36.325Z,10.00
2023-02-11T16:19:06.482Z,9.90
2023-02-11T16:21:39.065Z,9.90
2023-02-11T16:24:09.314Z,9.90
2023-02-11T16:26:40.987Z,9.90
2023-02-11T16:29:14.003Z,9.90
2023-02-11T16:31:44.188Z,9.90
2023-02-11T16:34:17.278Z,9.90
2023-02-11T16:36:48.432Z,9.80
2023-02-11T16:39:18.127Z,9.80
2023-02-11T16:41:46.488Z,9.80
2023-02-11T16:44:16.194Z,9.70
2023-02-11T16:46:44.854Z,9.70
2023-02-11T16:49:18.647Z,9.70
2023-02-11T16:51:49.794Z,9.70
2023-02-11T16:54:19.775Z,9.70
2023-02-11T16:56:48.103Z,9.70
2023-02-11T16:59:17.758Z,9.60
2023-02-11T17:01:47.094Z,9.60
2023-02-11T17:04:20.874Z,9.60
2023-02-11T17:06:49.463Z,9.50
2023-02-11T17:09:20.967Z,9.60
2023-02-11T17:11:49.726Z,9.60
2023-02-11T17:14:19.593Z,9.50
2023-02-11T17:16:49.032Z,9.50
2023-02-11T17:19:21.986Z,9.50
2023-02-11T17:21:52.337Z,9.50
2023-02-11T17:24:22.435Z,9.50
2023-02-11T17:26:51.234Z,9.40
2023-02-11T17:29:23.117Z,9.50
2023-02-11T17:31:52.706Z,9.40
2023-02-11T17:34:21.851Z,9.50
2023-02-11T17:36:50.470Z,9.40
2023-02-11T17:39:19.275Z,9.40
2023-02-11T17:41:47.606Z,9.40
2023-02-11T17:44:16.497Z,9.40
2023-02-11T17:46:46.295Z,9.40
2023-02-11T17:49:14.641Z,9.40
2023-02-11T17:51:42.984Z,9.40
2023-02-11T17:54:13.561Z,9.30
2023-02-11T17:56:42.584Z,9.30
2023-02-11T17:59:11.948Z,9.40
2023-02-11T18:01:42.145Z,9.40
2023-02-11T18:04:14.941Z,9.30
2023-02-11T18:06:43.397Z,9.30
2023-02-11T18:09:12.105Z,9.40
2023-02-11T18:11:41.590Z,9.40
2023-02-11T18:14:11.220Z,9.30
2023-02-11T18:16:43.034Z,9.40
2023-02-11T18:19:13.974Z,9.30
2023-02-11T18:21:42.549Z,9.40
2023-02-11T18:24:11.584Z,9.40
2023-02-11T18:26:39.935Z,9.40
2023-02-11T18:29:08.299Z,9.40
2023-02-11T18:31:37.062Z,9.30
2023-02-11T18:34:07.651Z,9.30
2023-02-11T18:36:38.053Z,9.20
2023-02-11T18:39:06.418Z,9.20
2023-02-11T18:41:35.031Z,9.20
2023-02-11T18:44:04.626Z,9.20
2023-02-11T18:46:33.080Z,9.20
2023-02-11T18:49:01.442Z,9.20
2023-02-11T18:51:31.878Z,9.20
2023-02-11T18:54:02.268Z,9.20
2023-02-11T18:56:30.724Z,9.20
2023-02-11T18:59:01.442Z,9.20
2023-02-11T19:01:31.655Z,9.20
2023-02-11T19:04:02.838Z,9.20
2023-02-11T19:06:34.058Z,9.20
2023-02-11T19:09:07.462Z,9.10
2023-02-11T19:11:55.364Z,9.10
2023-02-11T19:14:25.790Z,9.10
2023-02-11T19:16:55.454Z,9.00
2023-02-11T19:19:25.449Z,9.10
2023-02-11T19:21:53.846Z,9.00
2023-02-11T19:24:24.508Z,9.00
2023-02-11T19:26:56.693Z,9.00
2023-02-11T19:29:25.367Z,9.00
2023-02-11T19:31:56.619Z,9.00
2023-02-11T19:34:25.719Z,9.00
2023-02-11T19:36:54.787Z,9.00
2023-02-11T19:39:24.885Z,9.00
2023-02-11T19:41:53.519Z,9.00
2023-02-11T19:44:21.846Z,9.00
2023-02-11T19:46:52.814Z,9.00
2023-02-11T19:49:25.818Z,9.00
2023-02-11T19:51:55.404Z,9.00
2023-02-11T19:54:27.243Z,9.00
2023-02-11T19:56:55.793Z,9.00
2023-02-11T19:59:24.133Z,9.00
2023-02-11T20:01:53.857Z,9.00
2023-02-11T20:04:24.186Z,9.00
2023-02-11T20:06:52.570Z,8.90
2023-02-11T20:09:21.726Z,8.90
2023-02-11T20:11:51.625Z,8.90
2023-02-11T20:14:19.958Z,8.90
2023-02-11T20:16:50.007Z,8.90
2023-02-11T20:19:21.532Z,9.00
2023-02-11T20:21:52.952Z,9.00
2023-02-11T20:24:21.504Z,8.90
2023-02-11T20:26:55.387Z,9.00
2023-02-11T20:29:25.171Z,8.90
2023-02-11T20:31:53.720Z,8.90
2023-02-11T20:34:22.261Z,8.90
2023-02-11T20:36:52.808Z,8.90
2023-02-11T20:39:22.837Z,8.90
2023-02-11T20:41:53.889Z,8.90
2023-02-11T20:44:22.858Z,8.90
2023-02-11T20:46:54.878Z,8.80
2023-02-11T20:49:25.209Z,8.80
2023-02-11T20:51:53.784Z,8.80
2023-02-11T20:54:23.019Z,8.80
2023-02-11T20:56:53.937Z,8.80
2023-02-11T20:59:23.005Z,8.80
2023-02-11T21:01:55.356Z,8.80
2023-02-11T21:04:26.033Z,8.80
2023-02-11T21:06:56.691Z,8.80
2023-02-11T21:09:27.768Z,8.80
2023-02-11T21:11:57.883Z,8.70
2023-02-11T21:14:27.629Z,8.80
2023-02-11T21:16:56.438Z,8.80
2023-02-11T21:19:24.809Z,8.80
2023-02-11T21:21:55.163Z,8.80
2023-02-11T21:24:23.746Z,8.80
2023-02-11T21:26:52.118Z,8.80
2023-02-11T21:29:21.850Z,8.70
2023-02-11T21:31:51.436Z,8.80
2023-02-11T21:34:20.760Z,8.80
2023-02-11T21:36:51.113Z,8.70
2023-02-11T21:39:20.211Z,8.70
2023-02-11T21:41:48.651Z,8.70
2023-02-11T21:44:17.033Z,8.70
2023-02-11T21:46:46.720Z,8.70
2023-02-11T21:49:15.120Z,8.70
2023-02-11T21:51:44.633Z,8.70
2023-02-11T21:54:13.214Z,8.70
2023-02-11T21:56:41.584Z,8.70
2023-02-11T21:59:13.823Z,8.70
2023-02-11T22:01:42.191Z,8.70
2023-02-11T22:04:12.466Z,8.60
2023-02-11T22:06:41.038Z,8.70
2023-02-11T22:09:11.082Z,8.70
2023-02-11T22:11:39.580Z,8.60
2023-02-11T22:14:08.623Z,8.50
2023-02-11T22:16:37.028Z,8.50
2023-02-11T22:19:07.366Z,8.50
2023-02-11T22:21:37.283Z,8.60
2023-02-11T22:24:14.626Z,8.60
2023-02-11T22:26:42.958Z,8.60
2023-02-11T22:29:12.315Z,8.60
2023-02-11T22:31:40.687Z,8.50
2023-02-11T22:34:09.130Z,8.50
2023-02-11T22:36:40.215Z,8.50
2023-02-11T22:39:11.975Z,8.50
2023-02-11T22:41:41.649Z,8.60
2023-02-11T22:44:10.655Z,8.50
2023-02-11T22:46:39.362Z,8.50
2023-02-11T22:49:08.245Z,8.50
2023-02-11T22:51:38.059Z,8.50
2023-02-11T22:54:08.363Z,8.50
2023-02-11T22:56:37.043Z,8.50
2023-02-11T22:59:08.333Z,8.50
2023-02-11T23:01:36.839Z,8.50
2023-02-11T23:04:07.512Z,8.50
2023-02-11T23:06:36.450Z,8.50
2023-02-11T23:09:07.329Z,8.50
2023-02-11T23:11:36.001Z,8.50
2023-02-11T23:14:05.171Z,8.40
2023-02-11T23:16:35.669Z,8.50
2023-02-11T23:19:06.729Z,8.50
2023-02-11T23:21:37.700Z,8.50
2023-02-11T23:24:09.507Z,8.50
2023-02-11T23:26:39.703Z,8.50
2023-02-11T23:29:08.380Z,8.50
2023-02-11T23:31:39.892Z,8.50
2023-02-11T23:34:09.214Z,8.50
2023-02-11T23:36:37.784Z,8.50
2023-02-11T23:39:07.491Z,8.50
2023-02-11T23:41:35.829Z,8.50
2023-02-11T23:44:04.157Z,8.50
2023-02-11T23:46:32.539Z,8.60
2023-02-11T23:49:01.189Z,8.50
2023-02-11T23:51:29.594Z,8.50
2023-02-11T23:53:58.084Z,8.50
2023-02-11T23:56:29.223Z,8.50
2023-02-11T23:58:58.952Z,8.50
